Anchor, Texas
Current Conditions -  °F | °C
As of 6:53 AM on Monday 22 Dec 2014 (Local Time) from KLBX Reporting Station
Broken Clouds Broken Clouds  
Wind Chill: 16°   Ceiling: 2200
Heat Index: 16°   Visibility: 10mi
Dew Point: 16°   Wind: 8mph
Humidity: 100%   Direction: 180°S
Pressure: 29.76"   Gusts: NA
Location:  29.1898°N, 95.4754°W
Report Text: KLBX 221253Z AUTO 18007KT 10SM BKN022 BKN039 16/16 A2976 RMK AO2 SLP077 T01610161
Loading
Personal Weather Stations






























Interactive Weather Map New forecast layout! Learn more

10-Day Weather Forecast

Advertisements
Track Severe Weather on mobile